createdAt,value
2017-11-10T00:00:23.202Z,7.8
2017-11-10T00:01:24.905Z,7.7
2017-11-10T00:02:26.708Z,7.7
2017-11-10T00:03:28.424Z,7.7
2017-11-10T00:04:30.143Z,7.6
2017-11-10T00:05:31.872Z,7.7
2017-11-10T00:06:33.569Z,7.7
2017-11-10T00:07:35.338Z,7.7
2017-11-10T00:08:37.039Z,7.7
2017-11-10T00:09:38.674Z,7.7
2017-11-10T00:10:40.327Z,7.6
2017-11-10T00:11:42.092Z,7.7
2017-11-10T00:12:43.732Z,7.7
2017-11-10T00:13:45.407Z,7.6
2017-11-10T00:14:47.075Z,7.6
2017-11-10T00:15:48.717Z,7.6
2017-11-10T00:16:50.400Z,7.5
2017-11-10T00:17:52.114Z,7.5
2017-11-10T00:18:53.841Z,7.6
2017-11-10T00:19:55.460Z,7.5
2017-11-10T00:20:57.106Z,7.5
2017-11-10T00:21:58.730Z,7.5
2017-11-10T00:23:00.367Z,7.5
2017-11-10T00:24:02.073Z,7.6
2017-11-10T00:25:04.049Z,7.5
2017-11-10T00:26:05.712Z,7.5
2017-11-10T00:27:07.879Z,7.5
2017-11-10T00:28:10.034Z,7.6
2017-11-10T00:29:12.563Z,7.5
2017-11-10T00:30:14.223Z,7.5
2017-11-10T00:31:15.896Z,7.5
2017-11-10T00:32:17.592Z,7.6
2017-11-10T00:33:19.267Z,7.5
2017-11-10T00:34:21.051Z,7.5
2017-11-10T00:35:23.965Z,7.6
2017-11-10T00:36:26.760Z,7.5
2017-11-10T00:37:28.458Z,7.5
2017-11-10T00:38:30.169Z,7.5
2017-11-10T00:39:33.021Z,7.6
2017-11-10T00:40:36.197Z,7.5
2017-11-10T00:41:38.950Z,7.6
2017-11-10T00:42:40.917Z,7.6
2017-11-10T00:43:43.384Z,7.5
2017-11-10T00:44:45.111Z,7.5
2017-11-10T00:45:46.750Z,7.5
2017-11-10T00:46:48.665Z,7.5
2017-11-10T00:47:50.728Z,7.6
2017-11-10T00:48:52.443Z,7.6
2017-11-10T00:49:54.116Z,7.7
2017-11-10T00:50:57.029Z,7.7
2017-11-10T00:51:58.652Z,7.7
2017-11-10T00:53:00.347Z,7.6
2017-11-10T00:54:03.059Z,7.7
2017-11-10T00:55:04.813Z,7.6
2017-11-10T00:56:06.516Z,7.6
2017-11-10T00:57:08.263Z,7.7
2017-11-10T00:58:09.992Z,7.7
2017-11-10T00:59:11.708Z,7.6
2017-11-10T01:00:13.456Z,7.7
2017-11-10T01:01:15.184Z,7.8
2017-11-10T01:02:16.989Z,7.6
2017-11-10T01:03:18.758Z,7.7
2017-11-10T01:04:21.717Z,7.7
2017-11-10T01:05:24.977Z,7.7
2017-11-10T01:06:26.745Z,7.8
2017-11-10T01:07:28.652Z,7.7
2017-11-10T01:08:31.751Z,7.8
2017-11-10T01:09:33.826Z,7.8
2017-11-10T01:10:35.554Z,7.8
2017-11-10T01:11:37.272Z,7.8
2017-11-10T01:12:38.972Z,7.8
2017-11-10T01:13:42.146Z,7.8
2017-11-10T01:14:44.175Z,7.6
2017-11-10T01:15:46.284Z,7.8
2017-11-10T01:16:48.014Z,7.7
2017-11-10T01:17:49.799Z,7.6
2017-11-10T01:18:51.544Z,7.7
2017-11-10T01:19:53.337Z,7.6
2017-11-10T01:20:55.225Z,7.7
2017-11-10T01:21:56.925Z,7.7
2017-11-10T01:22:58.839Z,7.7
2017-11-10T01:24:00.687Z,7.7
2017-11-10T01:25:03.263Z,7.6
2017-11-10T01:26:05.603Z,7.7
2017-11-10T01:27:08.206Z,7.7
2017-11-10T01:28:09.982Z,7.6
2017-11-10T01:29:11.775Z,7.8
2017-11-10T01:30:13.632Z,7.7
2017-11-10T01:31:15.431Z,7.7
2017-11-10T01:32:17.232Z,7.8
2017-11-10T01:33:20.097Z,7.7
2017-11-10T01:34:21.932Z,7.7
2017-11-10T01:35:23.723Z,7.8
2017-11-10T01:36:25.460Z,7.8
2017-11-10T01:37:27.198Z,7.7
2017-11-10T01:38:30.919Z,7.7
2017-11-10T01:39:33.112Z,7.8
2017-11-10T01:40:34.956Z,7.9
2017-11-10T01:41:36.668Z,8.0
2017-11-10T01:42:38.456Z,7.8
2017-11-10T01:43:41.054Z,7.9
2017-11-10T01:44:42.889Z,7.9
2017-11-10T01:45:44.584Z,8.0
2017-11-10T01:46:48.563Z,7.9
2017-11-10T01:47:50.444Z,7.9
2017-11-10T01:48:52.999Z,8.0
2017-11-10T01:49:55.088Z,7.9
2017-11-10T01:50:56.944Z,7.9
2017-11-10T01:51:59.037Z,8.0
2017-11-10T01:53:01.650Z,8.0
2017-11-10T01:54:03.799Z,7.9
2017-11-10T01:55:05.702Z,8.0
2017-11-10T01:56:07.389Z,7.9
2017-11-10T01:57:09.109Z,8.0
2017-11-10T01:58:10.892Z,7.9
2017-11-10T01:59:12.630Z,8.0
2017-11-10T02:00:14.518Z,8.0
2017-11-10T02:01:16.264Z,8.0
2017-11-10T02:02:18.684Z,8.0
2017-11-10T02:03:20.339Z,7.9
2017-11-10T02:04:22.218Z,7.9
2017-11-10T02:05:24.074Z,8.0
2017-11-10T02:06:25.989Z,8.0
2017-11-10T02:07:28.329Z,8.0
2017-11-10T02:08:30.216Z,8.1
2017-11-10T02:09:32.545Z,8.1
2017-11-10T02:10:35.014Z,8.1
2017-11-10T02:11:36.746Z,8.1
2017-11-10T02:12:39.121Z,8.1
2017-11-10T02:13:41.002Z,8.2
2017-11-10T02:14:42.729Z,8.1
2017-11-10T02:15:44.576Z,8.1
2017-11-10T02:16:46.309Z,8.1
2017-11-10T02:17:48.586Z,8.1
2017-11-10T02:18:50.659Z,8.0
2017-11-10T02:19:52.530Z,8.1
2017-11-10T02:20:54.849Z,8.2
2017-11-10T02:21:56.710Z,8.1
2017-11-10T02:22:58.941Z,8.1
2017-11-10T02:24:00.653Z,8.1
2017-11-10T02:25:02.531Z,8.1
2017-11-10T02:26:04.286Z,8.0
2017-11-10T02:27:06.201Z,8.1
2017-11-10T02:28:07.937Z,8.1
2017-11-10T02:29:09.779Z,8.1
2017-11-10T02:30:12.013Z,8.0
2017-11-10T02:31:13.754Z,8.1
2017-11-10T02:32:15.622Z,8.1
2017-11-10T02:33:17.381Z,8.2
2017-11-10T02:34:19.484Z,8.2
2017-11-10T02:35:21.232Z,8.2
2017-11-10T02:36:22.940Z,8.1
2017-11-10T02:37:25.132Z,8.1
2017-11-10T02:38:27.245Z,8.1
2017-11-10T02:39:29.017Z,8.1
2017-11-10T02:40:30.817Z,8.1
2017-11-10T02:41:32.588Z,8.0
2017-11-10T02:42:34.484Z,8.1
2017-11-10T02:43:36.385Z,8.1
2017-11-10T02:44:38.788Z,8.1
2017-11-10T02:45:40.691Z,8.1
2017-11-10T02:46:42.370Z,8.0
2017-11-10T02:47:44.920Z,7.9
2017-11-10T02:48:47.230Z,8.0
2017-11-10T02:49:49.268Z,7.9
2017-11-10T02:50:51.290Z,8.0
2017-11-10T02:51:53.189Z,8.1
2017-11-10T02:52:55.284Z,8.1
2017-11-10T02:53:56.990Z,8.0
2017-11-10T02:54:58.704Z,8.2
2017-11-10T02:56:00.615Z,8.2
2017-11-10T02:57:02.976Z,8.2
2017-11-10T02:58:05.005Z,8.2
2017-11-10T02:59:07.465Z,8.2
2017-11-10T03:00:09.177Z,8.3
2017-11-10T03:01:10.947Z,8.2
2017-11-10T03:02:13.360Z,8.3
2017-11-10T03:03:15.433Z,8.3
2017-11-10T03:04:17.185Z,8.3
2017-11-10T03:05:19.817Z,8.3
2017-11-10T03:06:21.950Z,8.4
2017-11-10T03:07:23.986Z,8.5
2017-11-10T03:08:27.596Z,8.4
2017-11-10T03:09:29.589Z,8.4
2017-11-10T03:10:31.586Z,8.4
2017-11-10T03:11:33.301Z,8.5
2017-11-10T03:12:35.079Z,8.5
2017-11-10T03:13:37.687Z,8.5
2017-11-10T03:14:39.602Z,8.5
2017-11-10T03:15:41.805Z,8.5
2017-11-10T03:16:43.520Z,8.5
2017-11-10T03:17:45.391Z,8.5
2017-11-10T03:18:48.120Z,8.5
2017-11-10T03:19:49.811Z,8.6
2017-11-10T03:20:51.586Z,8.5
2017-11-10T03:21:53.338Z,8.5
2017-11-10T03:22:55.222Z,8.5
2017-11-10T03:23:57.082Z,8.5
2017-11-10T03:24:58.947Z,8.5
2017-11-10T03:26:00.676Z,8.5
2017-11-10T03:27:02.414Z,8.5
2017-11-10T03:28:04.334Z,8.5
2017-11-10T03:29:06.925Z,8.5
2017-11-10T03:30:08.736Z,8.5
2017-11-10T03:31:10.495Z,8.5
2017-11-10T03:32:12.507Z,8.5
2017-11-10T03:33:14.254Z,8.6
2017-11-10T03:34:16.138Z,8.5
2017-11-10T03:35:18.748Z,8.5
2017-11-10T03:36:21.879Z,8.6
2017-11-10T03:37:23.736Z,8.6
2017-11-10T03:38:26.584Z,8.6
2017-11-10T03:39:29.549Z,8.6
2017-11-10T03:40:32.137Z,8.4
2017-11-10T03:41:34.015Z,8.6
2017-11-10T03:42:35.783Z,8.6
2017-11-10T03:43:38.238Z,8.5
2017-11-10T03:44:41.031Z,8.6
2017-11-10T03:45:42.728Z,8.6
2017-11-10T03:46:44.463Z,8.6
2017-11-10T03:47:46.234Z,8.6
2017-11-10T03:48:47.962Z,8.6
2017-11-10T03:49:50.448Z,8.6
2017-11-10T03:50:53.005Z,8.6
2017-11-10T03:51:54.891Z,8.6
2017-11-10T03:52:56.640Z,8.6
2017-11-10T03:53:58.385Z,8.6
2017-11-10T03:55:00.173Z,8.6
2017-11-10T03:56:02.574Z,8.5
2017-11-10T03:57:04.328Z,8.5
2017-11-10T03:58:06.049Z,8.5
2017-11-10T03:59:08.449Z,8.6
2017-11-10T04:00:10.430Z,8.6
2017-11-10T04:01:12.190Z,8.6
2017-11-10T04:02:14.121Z,8.5
2017-11-10T04:03:15.826Z,8.6
2017-11-10T04:04:17.571Z,8.5
2017-11-10T04:05:19.265Z,8.6
2017-11-10T04:06:21.028Z,8.5
2017-11-10T04:07:22.802Z,8.5
2017-11-10T04:08:24.596Z,8.5
2017-11-10T04:09:26.341Z,8.6
2017-11-10T04:10:28.068Z,8.6
2017-11-10T04:11:30.473Z,8.6
2017-11-10T04:12:32.612Z,8.6
2017-11-10T04:13:34.463Z,8.5
2017-11-10T04:14:36.344Z,8.6
2017-11-10T04:15:38.092Z,8.6
2017-11-10T04:16:39.837Z,8.6
2017-11-10T04:17:41.702Z,8.6
2017-11-10T04:18:43.503Z,8.6
2017-11-10T04:19:45.618Z,8.6
2017-11-10T04:20:47.953Z,8.6
2017-11-10T04:21:49.805Z,8.6
2017-11-10T04:22:52.144Z,8.6
2017-11-10T04:23:54.428Z,8.7
2017-11-10T04:24:56.427Z,8.6
2017-11-10T04:25:58.180Z,8.6
2017-11-10T04:26:59.938Z,8.6
2017-11-10T04:28:01.833Z,8.5
2017-11-10T04:29:03.740Z,8.5
2017-11-10T04:30:05.608Z,8.5
2017-11-10T04:31:07.301Z,8.6
2017-11-10T04:32:09.043Z,8.6
2017-11-10T04:33:10.957Z,8.6
2017-11-10T04:34:12.866Z,8.5
2017-11-10T04:35:14.843Z,8.6
2017-11-10T04:36:16.731Z,8.7
2017-11-10T04:37:18.550Z,8.6
2017-11-10T04:38:20.698Z,8.6
2017-11-10T04:39:22.891Z,8.6
2017-11-10T04:40:25.022Z,8.6
2017-11-10T04:41:26.841Z,8.6
2017-11-10T04:42:28.887Z,8.7
2017-11-10T04:43:30.680Z,8.6
2017-11-10T04:44:32.519Z,8.7
2017-11-10T04:45:34.314Z,8.7
2017-11-10T04:46:36.446Z,8.7
2017-11-10T04:47:38.900Z,8.7
2017-11-10T04:48:40.999Z,8.7
2017-11-10T04:49:42.765Z,8.7
2017-11-10T04:50:44.470Z,8.7
2017-11-10T04:51:46.251Z,8.7
2017-11-10T04:52:48.403Z,8.7
2017-11-10T04:53:50.457Z,8.7
2017-11-10T04:54:52.327Z,8.7
2017-11-10T04:55:54.069Z,8.7
2017-11-10T04:56:55.790Z,8.7
2017-11-10T04:57:58.067Z,8.7
2017-11-10T04:59:00.190Z,8.7
2017-11-10T05:00:02.608Z,8.7
2017-11-10T05:01:04.721Z,8.7
2017-11-10T05:02:06.780Z,8.7
2017-11-10T05:03:08.528Z,8.8
2017-11-10T05:04:10.999Z,8.8
2017-11-10T05:05:12.994Z,8.8
2017-11-10T05:06:15.105Z,8.8
2017-11-10T05:07:17.119Z,8.8
2017-11-10T05:08:19.285Z,8.7
2017-11-10T05:09:21.508Z,8.8
2017-11-10T05:10:23.739Z,8.9
2017-11-10T05:11:25.809Z,8.8
2017-11-10T05:12:28.158Z,8.8
2017-11-10T05:13:29.943Z,8.7
2017-11-10T05:14:32.117Z,8.8
2017-11-10T05:15:34.293Z,8.8
2017-11-10T05:16:36.565Z,8.9
2017-11-10T05:17:38.360Z,8.8
2017-11-10T05:18:40.353Z,8.9
2017-11-10T05:19:42.356Z,8.8
2017-11-10T05:20:44.610Z,8.8
2017-11-10T05:21:46.941Z,8.8
2017-11-10T05:22:49.229Z,8.8
2017-11-10T05:23:51.641Z,8.8
2017-11-10T05:24:54.087Z,8.9
2017-11-10T05:25:56.128Z,8.8
2017-11-10T05:26:57.830Z,8.9
2017-11-10T05:27:59.893Z,8.9
2017-11-10T05:29:01.639Z,8.8
2017-11-10T05:30:04.200Z,8.9
2017-11-10T05:31:06.498Z,8.9
2017-11-10T05:32:08.620Z,8.9
2017-11-10T05:33:10.735Z,8.9
2017-11-10T05:34:12.529Z,8.9
2017-11-10T05:35:14.612Z,8.9
2017-11-10T05:36:16.854Z,8.8
2017-11-10T05:37:19.399Z,8.8
2017-11-10T05:38:21.168Z,9.0
2017-11-10T05:39:23.127Z,8.9
2017-11-10T05:40:24.823Z,8.9
2017-11-10T05:41:26.556Z,8.9
2017-11-10T05:42:28.204Z,8.9
2017-11-10T05:43:30.022Z,9.0
2017-11-10T05:44:32.365Z,8.9
2017-11-10T05:45:34.538Z,9.0
2017-11-10T05:46:36.549Z,9.0
2017-11-10T05:47:38.475Z,9.0
2017-11-10T05:48:40.319Z,8.9
2017-11-10T05:49:42.057Z,8.9
2017-11-10T05:50:43.882Z,8.9
2017-11-10T05:51:45.703Z,8.9
2017-11-10T05:52:47.536Z,9.0
2017-11-10T05:53:49.310Z,8.9
2017-11-10T05:54:51.294Z,8.9
2017-11-10T05:55:52.969Z,9.0
2017-11-10T05:56:54.710Z,9.1
2017-11-10T05:57:56.404Z,9.0
2017-11-10T05:58:58.128Z,9.1
2017-11-10T05:59:59.952Z,9.1
2017-11-10T06:01:01.739Z,9.0
2017-11-10T06:02:03.493Z,9.0
2017-11-10T06:03:05.211Z,8.9
2017-11-10T06:04:06.948Z,9.0
2017-11-10T06:05:08.636Z,9.0
2017-11-10T06:06:10.356Z,9.0
2017-11-10T06:07:12.373Z,9.0
2017-11-10T06:08:14.151Z,9.0
2017-11-10T06:09:16.741Z,8.9
2017-11-10T06:10:18.942Z,9.0
2017-11-10T06:11:21.181Z,9.0
2017-11-10T06:12:22.921Z,9.0
2017-11-10T06:13:24.664Z,9.0
2017-11-10T06:14:26.322Z,9.0
2017-11-10T06:15:29.024Z,9.0
2017-11-10T06:16:31.084Z,8.9
2017-11-10T06:17:32.861Z,9.0
2017-11-10T06:18:34.597Z,9.0
2017-11-10T06:19:36.340Z,9.0
2017-11-10T06:20:38.103Z,9.1
2017-11-10T06:21:39.781Z,9.1
2017-11-10T06:22:41.612Z,9.1
2017-11-10T06:23:43.375Z,9.0
2017-11-10T06:24:45.091Z,9.1
2017-11-10T06:25:46.766Z,9.1
2017-11-10T06:26:48.487Z,9.1
2017-11-10T06:27:50.249Z,9.1
2017-11-10T06:28:52.252Z,9.1
2017-11-10T06:29:54.059Z,9.1
2017-11-10T06:30:55.938Z,9.1
2017-11-10T06:31:57.632Z,9.1
2017-11-10T06:32:59.321Z,9.1
2017-11-10T06:34:01.038Z,9.2
2017-11-10T06:35:02.693Z,9.1
2017-11-10T06:36:04.313Z,9.1
2017-11-10T06:37:05.966Z,9.2
2017-11-10T06:38:07.680Z,9.1
2017-11-10T06:39:09.350Z,9.1
2017-11-10T06:40:10.961Z,9.2
2017-11-10T06:41:12.645Z,9.1
2017-11-10T06:42:14.351Z,9.1
2017-11-10T06:43:15.996Z,9.1
2017-11-10T06:44:17.728Z,9.2
2017-11-10T06:45:19.414Z,9.1
2017-11-10T06:46:21.125Z,9.1
2017-11-10T06:47:22.828Z,9.2
2017-11-10T06:48:24.605Z,9.2
2017-11-10T06:49:26.228Z,9.2
2017-11-10T06:50:27.958Z,9.1
2017-11-10T06:51:29.587Z,9.2
2017-11-10T06:52:31.225Z,9.2
2017-11-10T06:53:32.956Z,9.2
2017-11-10T06:54:34.669Z,9.2
2017-11-10T06:55:36.364Z,9.2
2017-11-10T06:56:37.987Z,9.3
2017-11-10T06:57:39.596Z,9.2
2017-11-10T06:58:41.312Z,9.3
2017-11-10T06:59:43.080Z,9.2
2017-11-10T07:00:44.705Z,9.2
2017-11-10T07:01:46.433Z,9.3
2017-11-10T07:02:48.069Z,9.3
2017-11-10T07:03:49.762Z,9.3
2017-11-10T07:04:51.470Z,9.3
2017-11-10T07:05:53.156Z,9.2
2017-11-10T07:06:54.804Z,9.2
2017-11-10T07:07:56.467Z,9.2
2017-11-10T07:08:58.180Z,9.3
2017-11-10T07:09:59.846Z,9.2
2017-11-10T07:11:01.532Z,9.1
2017-11-10T07:12:03.565Z,9.2
2017-11-10T07:13:05.237Z,9.2
2017-11-10T07:14:06.868Z,9.1
2017-11-10T07:15:08.605Z,9.2
2017-11-10T07:16:10.266Z,9.1
2017-11-10T07:17:11.945Z,9.1
2017-11-10T07:18:13.630Z,9.1
2017-11-10T07:19:15.302Z,9.1
2017-11-10T07:20:16.913Z,9.2
2017-11-10T07:21:18.537Z,9.0
2017-11-10T07:22:20.171Z,9.1
2017-11-10T07:23:21.845Z,9.1
2017-11-10T07:24:23.494Z,9.1
2017-11-10T07:25:25.136Z,9.1
2017-11-10T07:26:26.799Z,9.1
2017-11-10T07:27:28.435Z,9.2
2017-11-10T07:28:30.075Z,9.1
2017-11-10T07:29:31.731Z,9.1
2017-11-10T07:30:33.478Z,9.1
2017-11-10T07:31:35.119Z,9.1
2017-11-10T07:32:36.788Z,9.2
2017-11-10T07:33:38.406Z,9.1
2017-11-10T07:34:40.119Z,9.1
2017-11-10T07:35:41.778Z,9.1
2017-11-10T07:36:43.460Z,9.2
2017-11-10T07:37:45.097Z,9.1
2017-11-10T07:38:46.712Z,9.1
2017-11-10T07:39:48.598Z,9.0
2017-11-10T07:40:50.313Z,9.0
2017-11-10T07:41:51.929Z,9.1
2017-11-10T07:42:53.561Z,9.0
2017-11-10T07:43:55.295Z,9.1
2017-11-10T07:44:56.914Z,9.1
2017-11-10T07:45:58.601Z,9.0
2017-11-10T07:47:00.278Z,9.1
2017-11-10T07:48:01.911Z,9.1
2017-11-10T07:49:03.658Z,9.1
2017-11-10T07:50:05.261Z,9.1
2017-11-10T07:51:06.900Z,9.0
2017-11-10T07:52:08.705Z,9.0
2017-11-10T07:53:11.365Z,9.0
2017-11-10T07:54:13.872Z,9.1
2017-11-10T07:55:16.106Z,9.1
2017-11-10T07:56:17.806Z,9.1
2017-11-10T07:57:19.435Z,9.0
2017-11-10T07:58:21.055Z,9.1
2017-11-10T07:59:22.934Z,9.1
2017-11-10T08:00:24.543Z,9.2
2017-11-10T08:01:26.200Z,9.1
2017-11-10T08:02:27.919Z,9.1
2017-11-10T08:03:30.243Z,9.1
2017-11-10T08:04:32.511Z,9.2
2017-11-10T08:05:34.614Z,9.2
2017-11-10T08:06:36.377Z,9.2
2017-11-10T08:07:38.604Z,9.1
2017-11-10T08:08:40.291Z,9.3
2017-11-10T08:09:42.033Z,9.2
2017-11-10T08:10:43.828Z,9.2
2017-11-10T08:11:45.475Z,9.2
2017-11-10T08:12:47.529Z,9.1
2017-11-10T08:13:50.857Z,9.2
2017-11-10T08:14:52.638Z,9.2
2017-11-10T08:15:54.265Z,9.2
2017-11-10T08:16:56.373Z,9.2
2017-11-10T08:17:58.144Z,9.1
2017-11-10T08:19:00.392Z,9.1
2017-11-10T08:20:02.656Z,9.2
2017-11-10T08:21:04.248Z,9.1
2017-11-10T08:22:06.815Z,9.2
2017-11-10T08:23:08.691Z,9.1
2017-11-10T08:24:10.431Z,9.1
2017-11-10T08:25:12.535Z,9.1
2017-11-10T08:26:14.161Z,9.2
2017-11-10T08:27:15.875Z,9.1
2017-11-10T08:28:17.575Z,9.1
2017-11-10T08:29:19.372Z,9.1
2017-11-10T08:30:21.088Z,9.1
2017-11-10T08:31:22.733Z,9.1
2017-11-10T08:32:24.470Z,9.1
2017-11-10T08:33:26.186Z,9.2
2017-11-10T08:34:27.930Z,9.1
2017-11-10T08:35:29.783Z,9.1
2017-11-10T08:36:31.449Z,9.1
2017-11-10T08:37:33.224Z,9.2
2017-11-10T08:38:34.856Z,9.1
2017-11-10T08:39:36.741Z,9.2
2017-11-10T08:40:38.637Z,9.3
2017-11-10T08:41:40.409Z,9.1
2017-11-10T08:42:42.050Z,9.2
2017-11-10T08:43:43.850Z,9.2
2017-11-10T08:44:46.927Z,9.2
2017-11-10T08:45:48.642Z,9.3
2017-11-10T08:46:50.377Z,9.3
2017-11-10T08:47:52.108Z,9.3
2017-11-10T08:48:53.746Z,9.3
2017-11-10T08:49:55.490Z,9.3
2017-11-10T08:50:57.247Z,9.3
2017-11-10T08:51:58.925Z,9.4
2017-11-10T08:53:00.680Z,9.4
2017-11-10T08:54:02.358Z,9.3
2017-11-10T08:55:04.110Z,9.4
2017-11-10T08:56:05.829Z,9.5
2017-11-10T08:57:07.545Z,9.5
2017-11-10T08:58:09.167Z,9.5
2017-11-10T08:59:10.806Z,9.4
2017-11-10T09:00:12.437Z,9.4
2017-11-10T09:01:14.223Z,9.4
2017-11-10T09:02:15.878Z,9.5
2017-11-10T09:03:17.497Z,9.6
2017-11-10T09:04:19.307Z,9.6
2017-11-10T09:05:20.922Z,9.6
2017-11-10T09:06:22.579Z,9.5
2017-11-10T09:07:24.243Z,9.6
2017-11-10T09:08:25.871Z,9.7
2017-11-10T09:09:27.493Z,9.7
2017-11-10T09:10:29.112Z,9.6
2017-11-10T09:11:30.932Z,9.7
2017-11-10T09:12:34.276Z,9.7
2017-11-10T09:13:35.891Z,9.7
2017-11-10T09:14:37.508Z,9.7
2017-11-10T09:15:39.140Z,9.7
2017-11-10T09:16:40.759Z,9.7
2017-11-10T09:17:42.382Z,9.7
2017-11-10T09:18:44.039Z,9.7
2017-11-10T09:19:45.761Z,9.7
2017-11-10T09:20:47.384Z,9.7
2017-11-10T09:21:48.991Z,9.7
2017-11-10T09:22:50.672Z,9.7
2017-11-10T09:23:52.289Z,9.7
2017-11-10T09:24:53.987Z,9.7
2017-11-10T09:25:55.707Z,9.8
2017-11-10T09:26:57.309Z,9.8
2017-11-10T09:27:59.033Z,9.9
2017-11-10T09:29:00.656Z,9.7
2017-11-10T09:30:02.273Z,9.8
2017-11-10T09:31:03.981Z,9.8
2017-11-10T09:32:05.745Z,9.8
2017-11-10T09:33:07.458Z,9.8
2017-11-10T09:34:09.342Z,9.8
2017-11-10T09:35:11.151Z,9.8
2017-11-10T09:36:12.763Z,9.8
2017-11-10T09:37:14.385Z,9.9
2017-11-10T09:38:16.091Z,9.8
2017-11-10T09:39:17.798Z,9.9
2017-11-10T09:40:19.440Z,9.9
2017-11-10T09:41:21.053Z,9.9
2017-11-10T09:42:22.696Z,9.8
2017-11-10T09:43:24.293Z,9.9
2017-11-10T09:44:25.940Z,10.0
2017-11-10T09:45:27.699Z,10.0
2017-11-10T09:46:29.329Z,10.0
2017-11-10T09:47:30.954Z,10.0
2017-11-10T09:48:32.584Z,9.9
2017-11-10T09:49:34.201Z,10.0
2017-11-10T09:50:35.815Z,10.0
2017-11-10T09:51:37.438Z,10.0
2017-11-10T09:52:39.046Z,9.9
2017-11-10T09:53:40.665Z,9.9
2017-11-10T09:54:42.424Z,10.0
2017-11-10T09:55:44.196Z,10.0
2017-11-10T09:56:45.841Z,10.0
2017-11-10T09:57:47.534Z,10.1
2017-11-10T09:58:49.154Z,10.1
2017-11-10T09:59:50.776Z,10.1
2017-11-10T10:00:52.391Z,10.1
2017-11-10T10:01:54.312Z,10.1
2017-11-10T10:02:56.031Z,10.2
2017-11-10T10:03:57.820Z,10.1
2017-11-10T10:04:59.505Z,10.1
2017-11-10T10:06:01.120Z,10.2
2017-11-10T10:07:02.748Z,10.2
2017-11-10T10:08:04.702Z,10.3
2017-11-10T10:09:06.739Z,10.2
2017-11-10T10:10:08.422Z,10.2
2017-11-10T10:11:10.074Z,10.3
2017-11-10T10:12:11.820Z,10.3
2017-11-10T10:13:13.511Z,10.2
2017-11-10T10:14:15.124Z,10.2
2017-11-10T10:15:16.813Z,10.3
2017-11-10T10:16:18.503Z,10.3
2017-11-10T10:17:20.126Z,10.4
2017-11-10T10:18:21.778Z,10.4
2017-11-10T10:19:23.527Z,10.4
2017-11-10T10:20:25.201Z,10.4
2017-11-10T10:21:26.897Z,10.4
2017-11-10T10:22:28.594Z,10.5
2017-11-10T10:23:31.619Z,10.4
2017-11-10T10:24:33.453Z,10.4
2017-11-10T10:25:35.204Z,10.4
2017-11-10T10:26:37.006Z,10.4
2017-11-10T10:27:38.628Z,10.5
2017-11-10T10:28:40.245Z,10.5
2017-11-10T10:29:41.877Z,10.5
2017-11-10T10:30:43.500Z,10.5
2017-11-10T10:31:45.111Z,10.5
2017-11-10T10:32:46.725Z,10.5
2017-11-10T10:33:48.339Z,10.6
2017-11-10T10:34:49.958Z,10.6
2017-11-10T10:35:51.596Z,10.6
2017-11-10T10:36:53.189Z,10.6
2017-11-10T10:37:54.804Z,10.7
2017-11-10T10:38:56.418Z,10.7
2017-11-10T10:39:58.042Z,10.7
2017-11-10T10:40:59.653Z,10.7
2017-11-10T10:42:01.266Z,10.8
2017-11-10T10:43:02.886Z,10.7
2017-11-10T10:44:04.507Z,10.7
2017-11-10T10:45:06.123Z,10.8
2017-11-10T10:46:07.736Z,10.8
2017-11-10T10:47:09.348Z,10.7
2017-11-10T10:48:10.962Z,10.7
2017-11-10T10:49:12.578Z,10.7
2017-11-10T10:50:14.196Z,10.7
2017-11-10T10:51:15.850Z,10.8
2017-11-10T10:52:17.468Z,10.8
2017-11-10T10:53:19.090Z,10.9
2017-11-10T10:54:20.707Z,10.9
2017-11-10T10:55:22.332Z,10.9
2017-11-10T10:56:23.948Z,10.9
2017-11-10T10:57:25.564Z,10.9
2017-11-10T10:58:27.182Z,11.0
2017-11-10T10:59:28.798Z,11.0
2017-11-10T11:00:30.413Z,10.9
2017-11-10T11:01:32.029Z,11.0
2017-11-10T11:02:33.644Z,10.9
2017-11-10T11:03:35.263Z,11.0
2017-11-10T11:04:36.882Z,10.9
2017-11-10T11:05:38.499Z,10.9
2017-11-10T11:06:40.118Z,11.0
2017-11-10T11:07:41.736Z,10.9
2017-11-10T11:08:43.351Z,11.0
2017-11-10T11:09:44.975Z,11.0
2017-11-10T11:10:46.592Z,11.0
2017-11-10T11:11:48.208Z,11.1
2017-11-10T11:12:49.826Z,11.0
2017-11-10T11:13:51.444Z,11.1
2017-11-10T11:14:53.068Z,11.1
2017-11-10T11:15:54.690Z,11.0
2017-11-10T11:16:56.301Z,11.0
2017-11-10T11:17:57.920Z,11.1
2017-11-10T11:18:59.557Z,11.0
2017-11-10T11:20:01.158Z,11.0
2017-11-10T11:21:02.775Z,11.1
2017-11-10T11:22:04.402Z,11.1
2017-11-10T11:23:06.011Z,11.1
2017-11-10T11:24:07.628Z,11.0
2017-11-10T11:25:09.266Z,11.1
2017-11-10T11:26:10.864Z,11.1
2017-11-10T11:27:12.482Z,11.1
2017-11-10T11:28:14.100Z,11.0
2017-11-10T11:29:15.719Z,11.1
2017-11-10T11:30:17.336Z,11.1
2017-11-10T11:31:18.956Z,11.1
2017-11-10T11:32:20.582Z,11.1
2017-11-10T11:33:22.197Z,11.1
2017-11-10T11:34:23.831Z,11.1
2017-11-10T11:35:25.594Z,11.1
2017-11-10T11:36:27.205Z,11.0
2017-11-10T11:37:28.821Z,11.1
2017-11-10T11:38:30.437Z,11.0
2017-11-10T11:39:32.053Z,11.1
2017-11-10T11:40:33.673Z,11.0
2017-11-10T11:41:35.307Z,11.1
2017-11-10T11:42:36.919Z,11.0
2017-11-10T11:43:38.536Z,10.9
2017-11-10T11:44:40.180Z,10.9
2017-11-10T11:45:41.770Z,10.9
2017-11-10T11:46:43.383Z,10.9
2017-11-10T11:47:45.008Z,10.9
2017-11-10T11:48:46.624Z,10.9
2017-11-10T11:49:48.242Z,11.0
2017-11-10T11:50:49.858Z,10.9
2017-11-10T11:51:51.472Z,10.8
2017-11-10T11:52:53.096Z,10.8
2017-11-10T11:53:54.748Z,10.7
2017-11-10T11:54:56.366Z,10.7
2017-11-10T11:55:57.983Z,10.7
2017-11-10T11:56:59.603Z,10.6
2017-11-10T11:58:01.218Z,10.6
2017-11-10T11:59:02.835Z,10.4
2017-11-10T12:00:04.451Z,10.4
2017-11-10T12:01:06.071Z,10.4
2017-11-10T12:02:07.687Z,10.5
2017-11-10T12:03:09.304Z,10.4
2017-11-10T12:04:10.919Z,10.4
2017-11-10T12:05:12.539Z,10.4
2017-11-10T12:06:14.155Z,10.4
2017-11-10T12:07:15.770Z,10.4
2017-11-10T12:08:17.387Z,10.4
2017-11-10T12:09:19.004Z,10.4
2017-11-10T12:10:20.623Z,10.4
2017-11-10T12:11:22.240Z,10.4
2017-11-10T12:12:23.857Z,10.5
2017-11-10T12:13:25.606Z,10.5
2017-11-10T12:14:27.218Z,10.4
2017-11-10T12:15:28.835Z,10.4
2017-11-10T12:16:30.450Z,10.3
2017-11-10T12:17:32.065Z,10.3
2017-11-10T12:18:33.688Z,10.3
2017-11-10T12:19:35.297Z,10.3
2017-11-10T12:20:36.919Z,10.3
2017-11-10T12:21:38.531Z,10.3
2017-11-10T12:22:40.148Z,10.3
2017-11-10T12:23:41.766Z,10.3
2017-11-10T12:24:43.383Z,10.4
2017-11-10T12:25:45.000Z,10.3
2017-11-10T12:26:46.616Z,10.4
2017-11-10T12:27:48.273Z,10.4
2017-11-10T12:28:49.849Z,10.4
2017-11-10T12:29:51.469Z,10.4
2017-11-10T12:30:53.086Z,10.4
2017-11-10T12:31:54.708Z,10.5
2017-11-10T12:32:56.320Z,10.5
2017-11-10T12:33:57.938Z,10.4
2017-11-10T12:34:59.552Z,10.5
2017-11-10T12:36:01.172Z,10.5
2017-11-10T12:37:02.787Z,10.6
2017-11-10T12:38:04.401Z,10.4
2017-11-10T12:39:06.016Z,10.5
2017-11-10T12:40:07.632Z,10.4
2017-11-10T12:41:09.249Z,10.5
2017-11-10T12:42:10.864Z,10.5
2017-11-10T12:43:12.479Z,10.5
2017-11-10T12:44:14.091Z,10.5
2017-11-10T12:45:15.707Z,10.5
2017-11-10T12:46:17.321Z,10.6
2017-11-10T12:47:18.938Z,10.6
2017-11-10T12:48:20.555Z,10.6
2017-11-10T12:49:22.172Z,10.5
2017-11-10T12:50:23.784Z,10.7
2017-11-10T12:51:25.401Z,10.7
2017-11-10T12:52:27.018Z,10.7
2017-11-10T12:53:28.633Z,10.7
2017-11-10T12:54:30.251Z,10.6
2017-11-10T12:55:31.868Z,10.7
2017-11-10T12:56:33.483Z,10.8
2017-11-10T12:57:35.102Z,11.0
2017-11-10T12:58:36.719Z,11.2
2017-11-10T12:59:38.335Z,11.1
2017-11-10T13:00:39.952Z,11.1
2017-11-10T13:01:41.570Z,11.1
2017-11-10T13:02:43.188Z,11.0
2017-11-10T13:03:44.800Z,11.1
2017-11-10T13:04:46.417Z,10.9
2017-11-10T13:05:48.036Z,11.0
2017-11-10T13:06:49.665Z,10.9
2017-11-10T13:07:51.335Z,10.9
2017-11-10T13:08:52.956Z,10.8
2017-11-10T13:09:54.570Z,10.8
2017-11-10T13:10:56.180Z,10.8
2017-11-10T13:11:57.797Z,10.8
2017-11-10T13:12:59.465Z,10.7
2017-11-10T13:14:01.282Z,10.8
2017-11-10T13:15:02.901Z,10.8
2017-11-10T13:16:04.521Z,10.8
2017-11-10T13:17:06.132Z,10.7
2017-11-10T13:18:07.767Z,10.8
2017-11-10T13:19:09.378Z,10.7
2017-11-10T13:20:10.992Z,10.7
2017-11-10T13:21:12.750Z,10.9
2017-11-10T13:22:14.385Z,10.8
2017-11-10T13:23:16.078Z,10.9
2017-11-10T13:24:17.724Z,10.9
2017-11-10T13:25:19.367Z,10.7
2017-11-10T13:26:21.236Z,10.8
2017-11-10T13:27:22.890Z,10.8
2017-11-10T13:28:24.511Z,10.8
2017-11-10T13:29:26.131Z,10.9
2017-11-10T13:30:27.890Z,10.9
2017-11-10T13:31:29.561Z,10.9
2017-11-10T13:32:31.274Z,10.9
2017-11-10T13:33:33.135Z,10.9
2017-11-10T13:34:34.890Z,10.9
2017-11-10T13:35:36.693Z,11.0
2017-11-10T13:36:38.736Z,10.9
2017-11-10T13:37:41.064Z,10.9
2017-11-10T13:38:42.734Z,10.9
2017-11-10T13:39:44.562Z,10.9
2017-11-10T13:40:46.556Z,11.0
2017-11-10T13:41:48.449Z,11.0
2017-11-10T13:42:50.053Z,11.1
2017-11-10T13:43:51.878Z,11.1
2017-11-10T13:44:53.731Z,11.1
2017-11-10T13:45:55.370Z,11.4
2017-11-10T13:46:57.448Z,11.3
2017-11-10T13:47:59.162Z,11.4
2017-11-10T13:49:00.803Z,11.7
2017-11-10T13:50:02.489Z,11.5
2017-11-10T13:51:04.161Z,11.4
2017-11-10T13:52:05.784Z,11.4
2017-11-10T13:53:07.452Z,11.4
2017-11-10T13:54:09.275Z,11.4
2017-11-10T13:55:11.023Z,11.6
2017-11-10T13:56:12.662Z,11.6
2017-11-10T13:57:14.328Z,11.5
2017-11-10T13:58:16.042Z,11.6
2017-11-10T13:59:17.707Z,11.4
2017-11-10T14:00:19.418Z,11.4
2017-11-10T14:01:21.031Z,11.4
2017-11-10T14:02:22.652Z,11.3